createdAt,value
2022-08-30T00:00:15.870Z,18.3
2022-08-30T00:01:18.673Z,18.31
2022-08-30T00:02:16.145Z,18.37
2022-08-30T00:03:16.714Z,18.26
2022-08-30T00:04:15.869Z,18.27
2022-08-30T00:05:15.859Z,18.21
2022-08-30T00:06:15.881Z,18.26
2022-08-30T00:07:15.882Z,18.24
2022-08-30T00:08:16.020Z,18.18
2022-08-30T00:09:15.877Z,18.19
2022-08-30T00:10:15.870Z,18.24
2022-08-30T00:11:15.890Z,18.3
2022-08-30T00:12:15.881Z,18.27
2022-08-30T00:13:16.244Z,18.21
2022-08-30T00:14:15.877Z,18.12
2022-08-30T00:15:16.862Z,18.13
2022-08-30T00:16:16.164Z,18.16
2022-08-30T00:17:15.882Z,18.15
2022-08-30T00:18:17.348Z,18.03
2022-08-30T00:19:15.893Z,18.18
2022-08-30T00:20:15.906Z,18.06
2022-08-30T00:21:18.767Z,18.05
2022-08-30T00:22:15.911Z,18.09
2022-08-30T00:23:16.141Z,18.03
2022-08-30T00:24:15.897Z,18.06
2022-08-30T00:25:15.901Z,18.02
2022-08-30T00:26:17.647Z,18.12
2022-08-30T00:27:15.914Z,18.06
2022-08-30T00:28:15.907Z,18.13
2022-08-30T00:29:15.941Z,18.06
2022-08-30T00:30:15.921Z,18.03
2022-08-30T00:31:19.946Z,17.98
2022-08-30T00:32:18.728Z,17.84
2022-08-30T00:33:16.137Z,17.91
2022-08-30T00:34:15.914Z,17.95
2022-08-30T00:35:15.922Z,17.78
2022-08-30T00:36:15.949Z,17.82
2022-08-30T00:37:19.007Z,17.82
2022-08-30T00:38:15.937Z,17.84
2022-08-30T00:39:16.348Z,17.76
2022-08-30T00:40:16.171Z,17.71
2022-08-30T00:41:15.941Z,17.69
2022-08-30T00:42:15.945Z,17.65
2022-08-30T00:43:21.877Z,17.71
2022-08-30T00:44:15.927Z,17.69
2022-08-30T00:45:15.932Z,17.73
2022-08-30T00:46:16.005Z,17.71
2022-08-30T00:47:15.951Z,17.76
2022-08-30T00:48:18.961Z,17.6
2022-08-30T00:49:15.939Z,17.65
2022-08-30T00:50:15.941Z,17.68
2022-08-30T00:51:15.981Z,17.68
2022-08-30T00:52:15.957Z,17.69
2022-08-30T00:53:16.340Z,17.84
2022-08-30T00:54:15.967Z,17.8
2022-08-30T00:55:15.955Z,17.75
2022-08-30T00:56:15.955Z,17.79
2022-08-30T00:57:15.965Z,17.86
2022-08-30T00:58:15.969Z,17.75
2022-08-30T00:59:18.861Z,17.79
2022-08-30T01:00:15.958Z,17.72
2022-08-30T01:01:16.387Z,17.75
2022-08-30T01:02:16.181Z,17.73
2022-08-30T01:03:16.241Z,17.59
2022-08-30T01:04:15.978Z,17.66
2022-08-30T01:05:23.470Z,17.63
2022-08-30T01:06:16.021Z,17.78
2022-08-30T01:07:15.989Z,17.57
2022-08-30T01:08:15.975Z,17.53
2022-08-30T01:09:15.986Z,17.57
2022-08-30T01:10:19.133Z,17.56
2022-08-30T01:11:15.984Z,17.6
2022-08-30T01:12:19.609Z,17.5
2022-08-30T01:13:16.060Z,17.44
2022-08-30T01:14:15.990Z,17.44
2022-08-30T01:15:16.103Z,17.42
2022-08-30T01:16:16.311Z,17.47
2022-08-30T01:17:19.053Z,17.47
2022-08-30T01:18:18.769Z,17.44
2022-08-30T01:19:17.490Z,17.44
2022-08-30T01:20:16.010Z,17.47
2022-08-30T01:21:18.795Z,17.54
2022-08-30T01:22:16.018Z,17.41
2022-08-30T01:23:16.067Z,17.49
2022-08-30T01:24:16.023Z,17.44
2022-08-30T01:25:16.133Z,17.44
2022-08-30T01:26:19.009Z,17.44
2022-08-30T01:27:16.021Z,17.34
2022-08-30T01:28:16.032Z,17.3
2022-08-30T01:29:16.037Z,17.38
2022-08-30T01:30:16.026Z,17.39
2022-08-30T01:31:16.394Z,17.32
2022-08-30T01:32:26.155Z,17.38
2022-08-30T01:33:16.500Z,17.3
2022-08-30T01:34:16.043Z,17.28
2022-08-30T01:35:16.059Z,17.23
2022-08-30T01:36:16.037Z,17.23
2022-08-30T01:37:16.060Z,17.34
2022-08-30T01:38:16.034Z,17.17
2022-08-30T01:39:16.042Z,17.19
2022-08-30T01:40:16.207Z,17.16
2022-08-30T01:41:16.043Z,17.13
2022-08-30T01:42:16.057Z,17.1
2022-08-30T01:43:19.161Z,17.16
2022-08-30T01:44:16.042Z,17.13
2022-08-30T01:45:16.047Z,17.13
2022-08-30T01:46:16.225Z,17.12
2022-08-30T01:47:16.089Z,17.04
2022-08-30T01:48:18.631Z,17.07
2022-08-30T01:49:16.050Z,17.16
2022-08-30T01:50:15.890Z,17.09
2022-08-30T01:51:16.062Z,17.09
2022-08-30T01:52:16.070Z,17.07
2022-08-30T01:53:18.143Z,17.02
2022-08-30T01:54:18.900Z,17.04
2022-08-30T01:55:16.070Z,17.07
2022-08-30T01:56:16.076Z,17.07
2022-08-30T01:57:16.092Z,17.12
2022-08-30T01:58:16.068Z,17.13
2022-08-30T01:59:16.249Z,17.1
2022-08-30T02:00:16.073Z,17.1
2022-08-30T02:01:16.334Z,17.1
2022-08-30T02:02:16.086Z,17.12
2022-08-30T02:03:16.420Z,17.12
2022-08-30T02:04:16.303Z,17.14
2022-08-30T02:05:19.101Z,17.1
2022-08-30T02:06:16.077Z,17.12
2022-08-30T02:07:19.232Z,17.05
2022-08-30T02:08:16.080Z,16.98
2022-08-30T02:09:16.084Z,17.12
2022-08-30T02:10:19.114Z,16.95
2022-08-30T02:11:16.107Z,17.01
2022-08-30T02:12:16.102Z,16.92
2022-08-30T02:13:16.253Z,17.01
2022-08-30T02:14:16.095Z,16.99
2022-08-30T02:15:16.105Z,16.95
2022-08-30T02:16:16.392Z,16.92
2022-08-30T02:17:16.123Z,16.84
2022-08-30T02:18:16.107Z,16.94
2022-08-30T02:19:18.057Z,16.95
2022-08-30T02:20:16.108Z,16.83
2022-08-30T02:21:18.880Z,16.87
2022-08-30T02:22:16.145Z,16.89
2022-08-30T02:23:16.285Z,16.94
2022-08-30T02:24:16.106Z,16.87
2022-08-30T02:25:25.519Z,16.92
2022-08-30T02:26:16.115Z,16.91
2022-08-30T02:27:16.139Z,16.94
2022-08-30T02:28:20.808Z,16.79
2022-08-30T02:29:16.121Z,16.92
2022-08-30T02:30:16.123Z,16.89
2022-08-30T02:31:16.443Z,16.97
2022-08-30T02:32:16.143Z,16.89
2022-08-30T02:33:16.446Z,16.92
2022-08-30T02:34:16.125Z,16.92
2022-08-30T02:35:16.124Z,16.91
2022-08-30T02:36:16.143Z,16.91
2022-08-30T02:37:16.147Z,16.94
2022-08-30T02:38:16.138Z,16.92
2022-08-30T02:39:16.135Z,16.94
2022-08-30T02:40:16.465Z,16.91
2022-08-30T02:41:16.137Z,16.94
2022-08-30T02:42:16.170Z,16.89
2022-08-30T02:43:16.343Z,16.91
2022-08-30T02:44:16.147Z,16.86
2022-08-30T02:45:16.156Z,16.83
2022-08-30T02:46:16.417Z,16.8
2022-08-30T02:47:16.203Z,16.76
2022-08-30T02:48:19.162Z,16.79
2022-08-30T02:49:46.293Z,16.69
2022-08-30T02:50:16.161Z,16.72
2022-08-30T02:51:16.398Z,16.79
2022-08-30T02:52:16.177Z,16.69
2022-08-30T02:53:21.981Z,16.74
2022-08-30T02:54:16.162Z,16.79
2022-08-30T02:55:16.168Z,16.76
2022-08-30T02:56:16.192Z,16.74
2022-08-30T02:57:24.853Z,16.76
2022-08-30T02:58:16.175Z,16.77
2022-08-30T02:59:19.026Z,16.73
2022-08-30T03:00:16.185Z,16.72
2022-08-30T03:01:16.334Z,16.72
2022-08-30T03:02:16.203Z,16.64
2022-08-30T03:03:16.595Z,16.69
2022-08-30T03:04:19.018Z,16.65
2022-08-30T03:05:16.223Z,16.69
2022-08-30T03:06:16.191Z,16.61
2022-08-30T03:07:16.233Z,16.59
2022-08-30T03:08:16.191Z,16.54
2022-08-30T03:09:16.185Z,16.54
2022-08-30T03:10:21.705Z,16.46
2022-08-30T03:11:16.196Z,16.54
2022-08-30T03:12:16.216Z,16.5
2022-08-30T03:13:16.342Z,16.54
2022-08-30T03:14:16.242Z,16.49
2022-08-30T03:15:19.031Z,16.47
2022-08-30T03:16:16.465Z,16.31
2022-08-30T03:17:20.111Z,16.46
2022-08-30T03:18:16.205Z,16.44
2022-08-30T03:19:16.078Z,16.34
2022-08-30T03:20:16.208Z,16.47
2022-08-30T03:21:16.272Z,16.43
2022-08-30T03:22:16.237Z,16.39
2022-08-30T03:23:26.571Z,16.46
2022-08-30T03:24:16.211Z,16.4
2022-08-30T03:25:16.215Z,16.43
2022-08-30T03:26:19.041Z,16.36
2022-08-30T03:27:16.232Z,16.43
2022-08-30T03:28:16.225Z,16.36
2022-08-30T03:29:16.605Z,16.36
2022-08-30T03:30:16.218Z,16.44
2022-08-30T03:31:16.383Z,16.36
2022-08-30T03:32:16.458Z,16.39
2022-08-30T03:33:16.368Z,16.24
2022-08-30T03:34:17.224Z,16.16
2022-08-30T03:35:16.232Z,16.1
2022-08-30T03:36:16.229Z,16.13
2022-08-30T03:37:19.048Z,16.16
2022-08-30T03:38:16.240Z,16.25
2022-08-30T03:39:18.572Z,16.16
2022-08-30T03:40:16.450Z,16.24
2022-08-30T03:41:16.238Z,16.09
2022-08-30T03:42:16.261Z,16.21
2022-08-30T03:43:17.695Z,16.18
2022-08-30T03:44:17.559Z,16.1
2022-08-30T03:45:16.256Z,16.12
2022-08-30T03:46:16.455Z,16.13
2022-08-30T03:47:16.289Z,16.18
2022-08-30T03:48:19.382Z,16.13
2022-08-30T03:49:16.257Z,16.1
2022-08-30T03:50:16.251Z,16.09
2022-08-30T03:51:16.259Z,16.13
2022-08-30T03:52:16.278Z,16.09
2022-08-30T03:53:16.490Z,16.17
2022-08-30T03:54:16.266Z,16.09
2022-08-30T03:55:16.273Z,16.09
2022-08-30T03:56:16.270Z,16.16
2022-08-30T03:57:26.803Z,16.18
2022-08-30T03:58:21.421Z,16.22
2022-08-30T03:59:19.363Z,16.18
2022-08-30T04:00:16.305Z,16.22
2022-08-30T04:01:16.447Z,16.22
2022-08-30T04:02:16.592Z,16.17
2022-08-30T04:03:16.382Z,16.22
2022-08-30T04:04:22.277Z,16.17
2022-08-30T04:05:23.816Z,16.21
2022-08-30T04:06:16.300Z,16.16
2022-08-30T04:07:16.154Z,16.16
2022-08-30T04:08:16.299Z,16.18
2022-08-30T04:09:16.302Z,16.13
2022-08-30T04:10:19.096Z,16.17
2022-08-30T04:11:16.291Z,16.16
2022-08-30T04:12:22.614Z,16.18
2022-08-30T04:13:16.383Z,16.1
2022-08-30T04:14:16.311Z,16.03
2022-08-30T04:15:16.304Z,16.09
2022-08-30T04:16:16.481Z,16.18
2022-08-30T04:17:16.315Z,16.09
2022-08-30T04:18:16.331Z,16.13
2022-08-30T04:19:17.337Z,16.13
2022-08-30T04:20:16.310Z,16.16
2022-08-30T04:21:21.589Z,16.12
2022-08-30T04:22:16.325Z,16.16
2022-08-30T04:23:16.393Z,16.13
2022-08-30T04:24:16.324Z,16.16
2022-08-30T04:25:20.117Z,16.17
2022-08-30T04:26:16.321Z,16.13
2022-08-30T04:27:16.335Z,16.21
2022-08-30T04:28:16.325Z,16.13
2022-08-30T04:29:16.359Z,16.16
2022-08-30T04:30:16.332Z,16.12
2022-08-30T04:31:17.676Z,16.1
2022-08-30T04:32:19.257Z,16.16
2022-08-30T04:33:16.493Z,16.08
2022-08-30T04:34:16.335Z,16.05
2022-08-30T04:35:16.341Z,15.94
2022-08-30T04:36:16.338Z,16.03
2022-08-30T04:37:16.816Z,15.99
2022-08-30T04:38:16.345Z,16.05
2022-08-30T04:39:16.345Z,16
2022-08-30T04:40:16.790Z,15.94
2022-08-30T04:41:16.385Z,15.91
2022-08-30T04:42:16.357Z,15.92
2022-08-30T04:43:16.477Z,15.87
2022-08-30T04:44:23.945Z,15.98
2022-08-30T04:45:16.358Z,15.92
2022-08-30T04:46:16.557Z,15.92
2022-08-30T04:47:16.396Z,15.92
2022-08-30T04:48:19.140Z,15.99
2022-08-30T04:49:16.366Z,15.99
2022-08-30T04:50:16.371Z,15.96
2022-08-30T04:51:16.389Z,16.09
2022-08-30T04:52:16.384Z,15.98
2022-08-30T04:53:16.504Z,15.99
2022-08-30T04:54:16.369Z,15.94
2022-08-30T04:55:21.774Z,15.99
2022-08-30T04:56:16.386Z,15.96
2022-08-30T04:57:16.386Z,16.02
2022-08-30T04:58:16.382Z,15.91
2022-08-30T04:59:16.387Z,16
2022-08-30T05:00:16.379Z,15.94
2022-08-30T05:01:21.174Z,16
2022-08-30T05:02:19.534Z,16.06
2022-08-30T05:03:16.596Z,16.09
2022-08-30T05:04:16.391Z,16.16
2022-08-30T05:05:18.856Z,16.21
2022-08-30T05:06:16.389Z,16.22
2022-08-30T05:07:16.399Z,16.1
2022-08-30T05:08:16.392Z,16.21
2022-08-30T05:09:16.402Z,16.16
2022-08-30T05:10:16.399Z,16.26
2022-08-30T05:11:16.392Z,16.29
2022-08-30T05:12:17.955Z,16.29
2022-08-30T05:13:16.560Z,16.16
2022-08-30T05:14:16.405Z,16.12
2022-08-30T05:15:19.301Z,16.17
2022-08-30T05:16:16.679Z,16.32
2022-08-30T05:17:16.420Z,16.25
2022-08-30T05:18:18.829Z,16.26
2022-08-30T05:19:16.409Z,16.37
2022-08-30T05:20:19.272Z,16.47
2022-08-30T05:21:16.422Z,16.41
2022-08-30T05:22:16.420Z,16.49
2022-08-30T05:23:16.546Z,16.54
2022-08-30T05:24:16.420Z,16.55
2022-08-30T05:25:19.315Z,16.54
2022-08-30T05:26:19.203Z,16.44
2022-08-30T05:27:16.429Z,16.54
2022-08-30T05:28:16.593Z,16.61
2022-08-30T05:29:16.436Z,16.54
2022-08-30T05:30:16.444Z,16.58
2022-08-30T05:31:19.708Z,16.57
2022-08-30T05:32:16.430Z,16.55
2022-08-30T05:33:16.434Z,16.62
2022-08-30T05:34:16.443Z,16.62
2022-08-30T05:35:16.439Z,16.57
2022-08-30T05:36:16.437Z,16.68
2022-08-30T05:37:19.856Z,16.72
2022-08-30T05:38:16.587Z,16.64
2022-08-30T05:39:16.450Z,16.68
2022-08-30T05:40:16.812Z,16.79
2022-08-30T05:41:16.759Z,16.74
2022-08-30T05:42:21.390Z,16.72
2022-08-30T05:43:16.459Z,16.74
2022-08-30T05:44:16.459Z,16.77
2022-08-30T05:45:16.469Z,16.84
2022-08-30T05:46:16.900Z,16.89
2022-08-30T05:47:16.483Z,16.89
2022-08-30T05:48:22.409Z,16.91
2022-08-30T05:49:16.513Z,16.98
2022-08-30T05:50:16.473Z,17.07
2022-08-30T05:51:16.585Z,17.16
2022-08-30T05:52:16.473Z,17.19
2022-08-30T05:53:19.889Z,17.35
2022-08-30T05:54:16.484Z,17.49
2022-08-30T05:55:16.509Z,17.66
2022-08-30T05:56:16.480Z,17.76
2022-08-30T05:57:16.485Z,17.87
2022-08-30T05:58:16.632Z,17.95
2022-08-30T05:59:16.475Z,18.09
2022-08-30T06:00:16.498Z,18.21
2022-08-30T06:01:16.505Z,18.34
2022-08-30T06:02:16.740Z,18.45
2022-08-30T06:03:16.739Z,18.48
2022-08-30T06:04:19.646Z,18.68
2022-08-30T06:05:18.686Z,18.71
2022-08-30T06:06:16.499Z,18.79
2022-08-30T06:07:23.441Z,18.92
2022-08-30T06:08:16.683Z,19.05
2022-08-30T06:09:16.507Z,19.16
2022-08-30T06:10:22.354Z,19.29
2022-08-30T06:11:16.529Z,19.45
2022-08-30T06:12:16.509Z,19.48
2022-08-30T06:13:16.526Z,19.63
2022-08-30T06:14:16.511Z,19.62
2022-08-30T06:15:19.281Z,19.72
2022-08-30T06:16:16.757Z,19.72
2022-08-30T06:17:16.636Z,19.9
2022-08-30T06:18:16.889Z,20.02
2022-08-30T06:19:16.537Z,20.17
2022-08-30T06:20:16.530Z,20.26
2022-08-30T06:21:22.629Z,20.4
2022-08-30T06:22:16.524Z,20.49
2022-08-30T06:23:16.543Z,20.55
2022-08-30T06:24:16.528Z,20.63
2022-08-30T06:25:16.526Z,20.75
2022-08-30T06:26:19.346Z,20.92
2022-08-30T06:27:16.534Z,21.1
2022-08-30T06:28:16.945Z,21.1
2022-08-30T06:29:16.537Z,21.14
2022-08-30T06:30:16.535Z,21.29
2022-08-30T06:31:16.848Z,21.35
2022-08-30T06:32:16.544Z,21.44
2022-08-30T06:33:16.571Z,21.47
2022-08-30T06:34:16.546Z,21.63
2022-08-30T06:35:16.562Z,21.78
2022-08-30T06:36:16.543Z,21.92
2022-08-30T06:37:33.556Z,22.08
2022-08-30T06:38:16.633Z,22.07
2022-08-30T06:39:16.567Z,22.21
2022-08-30T06:40:16.893Z,22.33
2022-08-30T06:41:16.562Z,22.34
2022-08-30T06:42:16.583Z,22.55
2022-08-30T06:43:16.595Z,22.65
2022-08-30T06:44:16.594Z,22.74
2022-08-30T06:45:16.575Z,22.86
2022-08-30T06:46:16.792Z,22.99
2022-08-30T06:47:16.563Z,23.06
2022-08-30T06:48:20.446Z,23.33
2022-08-30T06:49:16.573Z,23.25
2022-08-30T06:50:17.761Z,23.34
2022-08-30T06:51:17.734Z,23.58
2022-08-30T06:52:16.677Z,23.73
2022-08-30T06:53:16.587Z,23.79
2022-08-30T06:54:16.871Z,23.77
2022-08-30T06:55:16.581Z,23.84
2022-08-30T06:56:22.105Z,23.77
2022-08-30T06:57:16.580Z,23.94
2022-08-30T06:58:16.769Z,24.1
2022-08-30T06:59:19.604Z,24.18
2022-08-30T07:00:16.649Z,24.1
2022-08-30T07:01:16.603Z,24.38
2022-08-30T07:02:16.925Z,24.4
2022-08-30T07:03:16.973Z,24.53
2022-08-30T07:04:16.935Z,24.65
2022-08-30T07:05:21.358Z,24.92
2022-08-30T07:06:16.594Z,24.74
2022-08-30T07:07:16.611Z,24.88
2022-08-30T07:08:16.752Z,25.04
2022-08-30T07:09:18.958Z,24.85
2022-08-30T07:10:16.448Z,25.12
2022-08-30T07:11:16.611Z,25.44
2022-08-30T07:12:16.612Z,25.41
2022-08-30T07:13:16.868Z,25.44
2022-08-30T07:14:16.635Z,25.56
2022-08-30T07:15:19.393Z,25.61
2022-08-30T07:16:16.931Z,25.58
2022-08-30T07:17:16.626Z,25.67
2022-08-30T07:18:16.628Z,25.78
2022-08-30T07:19:25.628Z,25.83
2022-08-30T07:20:16.633Z,25.96
2022-08-30T07:21:16.687Z,25.67
2022-08-30T07:22:16.623Z,25.78
2022-08-30T07:23:16.765Z,25.73
2022-08-30T07:24:16.646Z,25.95
2022-08-30T07:25:16.657Z,25.46
2022-08-30T07:26:16.676Z,25.44
2022-08-30T07:27:16.662Z,25.7
2022-08-30T07:28:16.668Z,25.96
2022-08-30T07:29:16.658Z,25.86
2022-08-30T07:30:16.665Z,25.96
2022-08-30T07:31:16.653Z,25.95
2022-08-30T07:32:16.798Z,26.22
2022-08-30T07:33:16.948Z,25.93
2022-08-30T07:34:16.660Z,25.92
2022-08-30T07:35:16.678Z,26.26
2022-08-30T07:36:16.652Z,26.53
2022-08-30T07:37:25.564Z,26.41
2022-08-30T07:38:16.660Z,26.24
2022-08-30T07:39:16.666Z,25.95
2022-08-30T07:40:16.950Z,26.31
2022-08-30T07:41:16.668Z,26.42
2022-08-30T07:42:19.749Z,26.53
2022-08-30T07:43:16.816Z,26.61
2022-08-30T07:44:16.671Z,26.78
2022-08-30T07:45:16.698Z,26.73
2022-08-30T07:46:16.874Z,26.13
2022-08-30T07:47:19.703Z,26.03
2022-08-30T07:48:16.700Z,26.07
2022-08-30T07:49:16.675Z,26.06
2022-08-30T07:50:16.557Z,26.37
2022-08-30T07:51:16.691Z,26.48
2022-08-30T07:52:16.685Z,26.6
2022-08-30T07:53:20.043Z,26.26
2022-08-30T07:54:16.720Z,26.39
2022-08-30T07:55:16.724Z,26.01
2022-08-30T07:56:16.699Z,26.13
2022-08-30T07:57:20.455Z,26.3
2022-08-30T07:58:19.822Z,26.46
2022-08-30T07:59:16.715Z,26.85
2022-08-30T08:00:16.731Z,26.93
2022-08-30T08:01:16.921Z,26.71
2022-08-30T08:02:16.888Z,26.93
2022-08-30T08:03:16.734Z,26.71
2022-08-30T08:04:20.161Z,27
2022-08-30T08:05:25.393Z,26.36
2022-08-30T08:06:16.728Z,26.7
2022-08-30T08:07:16.719Z,26.82
2022-08-30T08:08:16.950Z,26.83
2022-08-30T08:09:19.583Z,27.01
2022-08-30T08:10:16.769Z,27.07
2022-08-30T08:11:20.682Z,27.33
2022-08-30T08:12:16.729Z,27.26
2022-08-30T08:13:17.283Z,27.33
2022-08-30T08:14:16.821Z,27.47
2022-08-30T08:15:16.754Z,27.38
2022-08-30T08:16:19.719Z,27.3
2022-08-30T08:17:16.753Z,27.18
2022-08-30T08:18:16.872Z,27.38
2022-08-30T08:19:16.743Z,27.63
2022-08-30T08:20:20.080Z,27.63
2022-08-30T08:21:16.805Z,27.37
2022-08-30T08:22:32.066Z,27.41
2022-08-30T08:23:17.260Z,27.35
2022-08-30T08:24:16.752Z,27.47
2022-08-30T08:25:16.775Z,27.63
2022-08-30T08:26:16.753Z,27.75
2022-08-30T08:27:16.937Z,28.04
2022-08-30T08:28:16.916Z,27.97
2022-08-30T08:29:16.764Z,28.16
2022-08-30T08:30:19.187Z,28.25
2022-08-30T08:31:20.013Z,28.41
2022-08-30T08:32:16.760Z,28.33
2022-08-30T08:33:16.778Z,28.43
2022-08-30T08:34:16.773Z,28.56
2022-08-30T08:35:16.798Z,28.5
2022-08-30T08:36:16.799Z,28.71
2022-08-30T08:37:16.840Z,28.72
2022-08-30T08:38:17.139Z,28.43
2022-08-30T08:39:16.811Z,28.78
2022-08-30T08:40:17.011Z,28.9
2022-08-30T08:41:17.340Z,28.89
2022-08-30T08:42:19.892Z,28.38
2022-08-30T08:43:16.792Z,28.75
2022-08-30T08:44:16.788Z,28.92
2022-08-30T08:45:16.879Z,29.05
2022-08-30T08:46:18.735Z,29.3
2022-08-30T08:47:18.347Z,29.12
2022-08-30T08:48:17.318Z,29.06
2022-08-30T08:49:16.828Z,29
2022-08-30T08:50:21.763Z,29.2
2022-08-30T08:51:16.817Z,29.25
2022-08-30T08:52:16.806Z,29.28
2022-08-30T08:53:48.856Z,29.32
2022-08-30T08:54:16.801Z,29.47
2022-08-30T08:55:16.823Z,29.59
2022-08-30T08:56:16.815Z,29.73
2022-08-30T08:57:24.937Z,29.77
2022-08-30T08:58:16.982Z,29.5
2022-08-30T08:59:16.818Z,29.39
2022-08-30T09:00:16.705Z,29.25
2022-08-30T09:01:17.040Z,29.34
2022-08-30T09:02:16.825Z,29.37
2022-08-30T09:03:16.833Z,29.49
2022-08-30T09:04:22.876Z,29.73
2022-08-30T09:05:17.049Z,29.71
2022-08-30T09:06:16.848Z,30.06
2022-08-30T09:07:16.865Z,30.21
2022-08-30T09:08:16.840Z,30.27
2022-08-30T09:09:16.844Z,30.36
2022-08-30T09:10:20.445Z,30.27
2022-08-30T09:11:16.843Z,29.83
2022-08-30T09:12:16.840Z,30.11
2022-08-30T09:13:22.787Z,30.32
2022-08-30T09:14:18.517Z,30.59
2022-08-30T09:15:19.625Z,30.43
2022-08-30T09:16:26.948Z,30.43
2022-08-30T09:17:18.050Z,30.58
2022-08-30T09:18:24.422Z,30.03
2022-08-30T09:19:16.859Z,30.46
2022-08-30T09:20:16.873Z,29.87
2022-08-30T09:21:16.878Z,30.17
2022-08-30T09:22:16.862Z,29.8
2022-08-30T09:23:17.364Z,29.55
2022-08-30T09:24:26.056Z,30.02
2022-08-30T09:25:16.862Z,30.23
2022-08-30T09:26:20.000Z,30.51
2022-08-30T09:27:16.954Z,30.58
2022-08-30T09:28:17.010Z,30.76
2022-08-30T09:29:17.353Z,30.39
2022-08-30T09:30:19.983Z,30.63
2022-08-30T09:31:17.317Z,30.76
2022-08-30T09:32:30.080Z,30.89
2022-08-30T09:33:17.610Z,31
2022-08-30T09:34:16.892Z,30.91
2022-08-30T09:35:16.889Z,31.18
2022-08-30T09:36:16.919Z,31.25
2022-08-30T09:37:16.891Z,30.93
2022-08-30T09:38:19.683Z,31.04
2022-08-30T09:39:16.908Z,31.04
2022-08-30T09:40:17.341Z,30.73
2022-08-30T09:41:16.988Z,30.56
2022-08-30T09:42:19.969Z,30.92
2022-08-30T09:43:17.089Z,30.95
2022-08-30T09:44:16.902Z,31.17
2022-08-30T09:45:16.911Z,31.15
2022-08-30T09:46:20.871Z,31.2
2022-08-30T09:47:18.956Z,30.81
2022-08-30T09:48:17.194Z,30.76
2022-08-30T09:49:16.911Z,30.98
2022-08-30T09:50:16.990Z,30.88
2022-08-30T09:51:16.938Z,30.98
2022-08-30T09:52:16.970Z,31.1
2022-08-30T09:53:25.667Z,31.07
2022-08-30T09:54:25.484Z,31.23
2022-08-30T09:55:17.024Z,31.32
2022-08-30T09:56:16.956Z,31.44
2022-08-30T09:57:17.369Z,31.64
2022-08-30T09:58:17.574Z,31.87
2022-08-30T09:59:16.933Z,31.28
2022-08-30T10:00:18.168Z,31.72
2022-08-30T10:01:17.154Z,31.7
2022-08-30T10:02:18.733Z,31.7
2022-08-30T10:03:35.156Z,31.66
2022-08-30T10:04:16.945Z,31.5
2022-08-30T10:05:16.944Z,31.74
2022-08-30T10:06:17.136Z,31.98
2022-08-30T10:07:16.957Z,32.15
2022-08-30T10:08:17.523Z,31.87
2022-08-30T10:09:20.073Z,31.95
2022-08-30T10:10:16.969Z,31.72
2022-08-30T10:11:17.298Z,31.67
2022-08-30T10:12:20.186Z,31.98
2022-08-30T10:13:18.052Z,31.44
2022-08-30T10:14:19.738Z,31.45
2022-08-30T10:15:16.961Z,31.5
2022-08-30T10:16:16.979Z,31.2
2022-08-30T10:17:18.593Z,31.15
2022-08-30T10:18:17.221Z,31.28
2022-08-30T10:19:16.975Z,31.37
2022-08-30T10:20:20.065Z,31.36
2022-08-30T10:21:24.413Z,31.29
2022-08-30T10:22:17.229Z,31.55
2022-08-30T10:23:17.189Z,31.69
2022-08-30T10:24:23.521Z,31.66
2022-08-30T10:25:20.659Z,31.67
2022-08-30T10:26:21.565Z,31.77
2022-08-30T10:27:17.729Z,31.66
2022-08-30T10:28:17.029Z,31.78
2022-08-30T10:29:18.411Z,31.77
2022-08-30T10:30:17.284Z,31.52
2022-08-30T10:31:20.210Z,31.62
2022-08-30T10:32:17.034Z,31.23
2022-08-30T10:33:19.417Z,31.26
2022-08-30T10:34:17.047Z,31.39
2022-08-30T10:35:23.855Z,31.62
2022-08-30T10:36:20.559Z,31.47
2022-08-30T10:37:18.940Z,31.42
2022-08-30T10:38:17.010Z,31.26
2022-08-30T10:39:20.751Z,31.41
2022-08-30T10:40:17.228Z,31.69
2022-08-30T10:41:17.059Z,32.08
2022-08-30T10:42:17.032Z,32.24
2022-08-30T10:43:17.146Z,32.08
2022-08-30T10:44:18.222Z,31.95
2022-08-30T10:45:17.030Z,31.97
2022-08-30T10:46:19.042Z,32.17
2022-08-30T10:47:27.698Z,32.2
2022-08-30T10:48:16.883Z,32.31
2022-08-30T10:49:17.031Z,32.26
2022-08-30T10:50:17.035Z,32.34
2022-08-30T10:51:17.083Z,32.51
2022-08-30T10:52:17.278Z,32.48
2022-08-30T10:53:17.098Z,32.04
2022-08-30T10:54:23.099Z,32.26
2022-08-30T10:55:17.046Z,32.44
2022-08-30T10:56:17.990Z,32.31
2022-08-30T10:57:17.051Z,32.3
2022-08-30T10:58:19.963Z,32.31
2022-08-30T10:59:17.730Z,32.63
2022-08-30T11:00:18.983Z,32.53
2022-08-30T11:01:17.616Z,32.73
2022-08-30T11:42:44.154Z,33.33
2022-08-30T11:43:44.681Z,33.28
2022-08-30T11:44:45.150Z,33.35
2022-08-30T11:45:45.352Z,33.51
2022-08-30T11:46:47.656Z,33.28
2022-08-30T11:47:44.315Z,33.09
2022-08-30T11:48:58.434Z,33.23
2022-08-30T11:49:47.151Z,33.05
2022-08-30T11:50:50.030Z,32.91
2022-08-30T11:51:48.509Z,33.03
2022-08-30T11:52:44.152Z,33
2022-08-30T11:53:44.281Z,33.32
2022-08-30T11:54:44.098Z,33.39
2022-08-30T11:55:45.081Z,33.29
2022-08-30T11:56:44.101Z,33.08
2022-08-30T11:57:44.122Z,33.17
2022-08-30T11:58:50.956Z,32.97
2022-08-30T11:59:44.101Z,33
2022-08-30T12:00:54.968Z,33.12
2022-08-30T12:01:59.208Z,33.23
2022-08-30T12:02:44.868Z,33.16
2022-08-30T12:03:46.126Z,33.1
2022-08-30T12:04:44.126Z,33.03
2022-08-30T12:05:44.208Z,33.16
2022-08-30T12:06:45.590Z,33.26
2022-08-30T12:07:46.509Z,33.44
2022-08-30T12:08:49.707Z,33.33
2022-08-30T12:09:44.127Z,33.57
2022-08-30T12:10:44.135Z,33.16
2022-08-30T12:11:46.893Z,33.42
2022-08-30T12:12:45.482Z,33.36
2022-08-30T12:13:44.132Z,33.55
2022-08-30T12:14:46.921Z,33.44
2022-08-30T12:15:46.352Z,33.36
2022-08-30T12:16:53.768Z,33.35
2022-08-30T12:17:45.140Z,33.22
2022-08-30T12:18:46.783Z,33.01
2022-08-30T12:19:51.304Z,32.94
2022-08-30T12:20:44.461Z,32.97
2022-08-30T12:21:49.605Z,32.9
2022-08-30T12:22:47.149Z,32.66
2022-08-30T12:23:49.533Z,32.71
2022-08-30T12:24:45.508Z,32.71
2022-08-30T12:25:44.163Z,32.63
2022-08-30T12:26:46.097Z,32.66
2022-08-30T12:27:45.277Z,32.51
2022-08-30T12:28:46.735Z,32.24
2022-08-30T12:29:44.411Z,32.2
2022-08-30T12:30:46.606Z,32.3
2022-08-30T12:31:44.685Z,32.51
2022-08-30T12:32:46.516Z,32.53
2022-08-30T12:33:48.986Z,32.3
2022-08-30T12:34:44.177Z,32.23
2022-08-30T12:35:44.713Z,32.22
2022-08-30T12:36:44.183Z,32.24
2022-08-30T12:37:46.868Z,32.3
2022-08-30T12:38:47.055Z,32.51
2022-08-30T12:39:45.471Z,32.51
2022-08-30T12:40:44.333Z,32.34
2022-08-30T12:41:48.233Z,32.24
2022-08-30T12:42:46.210Z,32.42
2022-08-30T12:43:47.061Z,32.35
2022-08-30T12:44:47.053Z,32.44
2022-08-30T12:45:44.456Z,32.66
2022-08-30T12:46:44.428Z,32.59
2022-08-30T12:47:44.227Z,32.51
2022-08-30T12:48:44.227Z,32.17
2022-08-30T12:49:47.066Z,32.63
2022-08-30T12:50:44.205Z,32.66
2022-08-30T12:51:45.807Z,32.57
2022-08-30T12:52:46.621Z,32.35
2022-08-30T12:53:44.368Z,32.51
2022-08-30T12:54:46.878Z,32.57
2022-08-30T12:55:44.222Z,32.59
2022-08-30T12:56:54.167Z,32.61
2022-08-30T12:57:44.217Z,32.64
2022-08-30T12:58:44.226Z,32.79
2022-08-30T12:59:48.930Z,32.57
2022-08-30T13:00:47.876Z,32.81
2022-08-30T13:01:45.788Z,32.57
2022-08-30T13:02:44.240Z,32.67
2022-08-30T13:03:44.365Z,32.82
2022-08-30T13:04:44.382Z,32.93
2022-08-30T13:05:52.767Z,32.97
2022-08-30T13:06:44.249Z,33.04
2022-08-30T13:07:46.351Z,32.61
2022-08-30T13:08:44.243Z,33.01
2022-08-30T13:09:44.903Z,33.32
2022-08-30T13:10:44.657Z,32.82
2022-08-30T13:11:47.018Z,33.01
2022-08-30T13:12:45.610Z,32.93
2022-08-30T13:13:51.935Z,33.01
2022-08-30T13:14:48.161Z,33.23
2022-08-30T13:15:45.219Z,33.1
2022-08-30T13:16:51.552Z,33.23
2022-08-30T13:17:44.265Z,33.26
2022-08-30T13:18:44.296Z,32.97
2022-08-30T13:19:45.626Z,32.95
2022-08-30T13:20:44.286Z,32.95
2022-08-30T13:21:44.271Z,32.81
2022-08-30T13:22:47.601Z,32.95
2022-08-30T13:23:44.407Z,33.01
2022-08-30T13:24:44.403Z,32.94
2022-08-30T13:25:44.278Z,32.9
2022-08-30T13:26:44.822Z,33.08
2022-08-30T13:27:44.414Z,33.13
2022-08-30T13:28:50.946Z,33.1
2022-08-30T13:29:44.376Z,33.15
2022-08-30T13:30:44.306Z,33.2
2022-08-30T13:31:46.100Z,33.08
2022-08-30T13:32:44.316Z,33.12
2022-08-30T13:33:44.316Z,33.12
2022-08-30T13:34:45.856Z,33.19
2022-08-30T13:35:44.991Z,33.08